Industrial, Louisiana
Current Conditions -  °F | °C
As of 7:53 PM on Saturday 22 Nov 2014 (Local Time) from KDTN Reporting Station
Overcast Overcast  
Wind Chill: 64°   Ceiling: 2700
Heat Index: 64°   Visibility: 10mi
Dew Point: 57°   Wind: 8mph
Humidity: 78%   Direction: 130°SE
Pressure: 29.88"   Gusts: NA
Location:  32.5955°N, 93.8642°W
Report Text: KDTN 230153Z 13007KT 10SM OVC027 18/14 A2988 RMK AO2 SLP117 T01780139
Loading
Personal Weather Stations






























Interactive Weather Map New forecast layout! Learn more

10-Day Weather Forecast

Advertisements
Track Severe Weather on mobile